Flight Track Log - Related Links

Times and Time Zones

All times are in EST time to prevent confusion due to time zone crossing. See the N400PU flight status page for this flight to view local times or setup timezone preferences in your user account.

Time Position Orientation Groundspeed Altitude Reporting Facility
EST Latitude Longitude Course Direction KTS MPH feet Rate Location/Type
Wed 08:10:19 AM 40.9319 -77.9256 299° West 277 319 9,000  Level Cleveland Center
Wed 08:11:21 AM 40.9281 -78.0600 268° West 305 351 11,000 2,177 Climbing Cleveland Center
Wed 08:12:23 AM 40.9244 -78.1747 268° West 312 359 13,500 2,419 Climbing Cleveland Center
Wed 08:13:00 AM 40.8405 -78.5909 270° West  Level Estimated
Wed 08:13:25 AM 40.9192 -78.2917 267° West 327 376 16,000  Level Cleveland Center
Wed 08:14:27 AM 40.9142 -78.4133 267° West 333 383 18,200 2,323 Climbing Cleveland Center
Wed 08:15:29 AM 40.9092 -78.5367 267° West 337 388 20,800 2,323 Climbing Cleveland Center
Wed 08:16:31 AM 40.9014 -78.6889 266° West 350 403 23,000 1,210 Climbing Cleveland Center
Wed 08:17:33 AM 40.8956 -78.8314 267° West 384 442 23,300 1,065 Climbing Cleveland Center
Wed 08:18:35 AM 40.8906 -78.9794 267° West 403 464 25,200 1,742 Climbing Cleveland Center
Wed 08:19:37 AM 40.8844 -79.1208 267° West 389 448 26,900 1,790 Climbing Cleveland Center
Wed 08:20:39 AM 40.8767 -79.2581 266° West 379 436 28,900 1,776 Climbing Cleveland Center
Wed 08:21:42 AM 40.8672 -79.4203 266° West 372 428 30,600 1,488 Climbing Cleveland Center
Wed 08:22:44 AM 40.8608 -79.5611 267° West 382 440 32,000 677 Climbing Cleveland Center
Wed 08:23:46 AM 40.8528 -79.7047 266° West 395 455 32,000 532 Level Cleveland Center
Wed 08:24:48 AM 40.8458 -79.8522 266° West 402 463 33,100 968 Climbing Cleveland Center
Wed 08:25:50 AM 40.8375 -80.0119 266° West 394 453 34,000 435 Climbing Cleveland Center
Wed 08:26:52 AM 40.8289 -80.1564 266° West 395 455 34,000  Level Cleveland Center
Wed 08:27:54 AM 40.8231 -80.3017 267° West 398 458 34,000 484 Level Cleveland Center
Wed 08:28:56 AM 40.8175 -80.4500 267° West 393 452 35,000 968 Climbing Cleveland Center
Wed 08:29:58 AM 40.8117 -80.5900 267° West 379 436 36,000 484 Climbing Cleveland Center
Wed 08:31:00 AM 40.8061 -80.7364 267° West 395 455 36,000  Level Cleveland Center
Wed 08:32:02 AM 40.7992 -80.9125 267° West 403 464 36,000  Level Cleveland Center
Wed 08:33:05 AM 40.7925 -81.0608 267° West 403 464 36,000  Level Cleveland Center
Wed 08:34:07 AM 40.7850 -81.2117 266° West 406 467 36,000  Level Cleveland Center
Wed 08:35:09 AM 40.7786 -81.3606 267° West 402 463 36,000  Level Cleveland Center
Wed 08:36:11 AM 40.7711 -81.5086 266° West 400 460 36,000  Level Cleveland Center
Wed 08:37:13 AM 40.7633 -81.6583 266° West 403 464 36,000  Level Cleveland Center
Wed 08:38:15 AM 40.7561 -81.8075 266° West 402 463 36,000  Level Cleveland Center
Wed 08:39:17 AM 40.7472 -81.9808 266° West 401 461 36,000  Level Cleveland Center
Wed 08:40:19 AM 40.7400 -82.1286 266° West 400 460 36,000  Level Cleveland Center
Wed 08:41:35 AM 40.7292 -82.3014 265° West 401 461 36,000  Level Indianapolis Center
Wed 08:42:37 AM 40.7214 -82.4492 266° West 401 461 36,000  Level Indianapolis Center
Wed 08:43:39 AM 40.7128 -82.5958 266° West 398 458 36,000  Level Indianapolis Center
Wed 08:44:41 AM 40.7031 -82.7678 266° West 399 459 36,000  Level Indianapolis Center
Wed 08:45:43 AM 40.6944 -82.9156 266° West 400 460 36,000  Level Indianapolis Center
Wed 08:46:45 AM 40.6850 -83.0642 265° West 403 464 36,000  Level Indianapolis Center
Wed 08:47:47 AM 40.6767 -83.1997 265° West 399 459 36,000  Level Indianapolis Center
Wed 08:48:49 AM 40.6675 -83.3442 265° West 400 460 36,000  Level Indianapolis Center
Wed 08:49:51 AM 40.6564 -83.5186 265° West 400 460 36,000 -145 Level Indianapolis Center
Wed 08:50:53 AM 40.6467 -83.6617 265° West 396 456 35,700 -435 Descending Indianapolis Center
Wed 08:51:55 AM 40.6369 -83.7997 265° West 384 442 35,100 -339 Descending Indianapolis Center
Wed 08:52:57 AM 40.6269 -83.9422 265° West 392 451 35,000 -48 Descending Indianapolis Center
Wed 08:53:59 AM 40.6169 -84.0886 265° West 402 463 35,000 -339 Level Indianapolis Center
Wed 08:55:01 AM 40.6056 -84.2597 265° West 396 456 34,300 -871 Descending Indianapolis Center
Wed 08:56:03 AM 40.5944 -84.4014 264° West 393 452 33,200 -1,161 Descending Indianapolis Center
Wed 08:57:05 AM 40.5839 -84.5467 265° West 401 461 31,900 -1,258 Descending Indianapolis Center
Wed 08:58:07 AM 40.5731 -84.6933 264° West 405 466 30,600 -1,248 Descending Indianapolis Center
Wed 08:59:10 AM 40.5611 -84.8403 264° West 406 467 29,300 -1,392 Descending Indianapolis Center
Wed 09:00:12 AM 40.5475 -85.0172 264° West 414 476 27,700 -1,500 Descending Indianapolis Center
Wed 09:01:14 AM 40.5347 -85.1644 264° West 410 472 26,200 -1,403 Descending Indianapolis Center
Wed 09:02:16 AM 40.5236 -85.3194 265° West 424 488 24,800 -1,452 Descending Indianapolis Center
Wed 09:03:18 AM 40.5103 -85.4714 263° West 424 488 23,200 -2,081 Descending Indianapolis Center
Wed 09:04:20 AM 40.4992 -85.6169 264° West 410 472 20,500 -2,613 Descending Indianapolis Center
Wed 09:05:22 AM 40.4878 -85.7553 264° West 392 451 17,800 -3,027 Descending Indianapolis Center
Wed 09:06:13 AM 40.4797 -85.9022 266° West 377 434 14,800 -3,368 Descending Chicago Center
Wed 09:06:19 AM 40.4775 -85.9103 250° West 377 434 14,600 -1,543 Descending Chicago Center
Wed 09:06:48 AM 40.4750 -85.9703 267° West 375 432 13,900 -1,574 Descending Chicago Center
Wed 09:07:20 AM 40.4714 -86.0383 266° West 362 417 13,000 -1,645 Descending Chicago Center
Wed 09:07:50 AM 40.4678 -86.1000 266° West 365 420 12,200 -1,700 Descending Chicago Center
Wed 09:08:20 AM 40.4608 -86.1769 263° West 356 410 11,300 -1,645 Descending Chicago Center
Wed 09:08:52 AM 40.4606 -86.2244 270° West 353 406 10,500 -1,574 Descending Chicago Center
Wed 09:09:21 AM 40.4553 -86.2833 263° West 290 334 9,700 -1,548 Descending Chicago Center
Wed 09:09:54 AM 40.4528 -86.3283 266° West 300 345 8,900 -1,700 Descending Chicago Center
Wed 09:10:21 AM 40.4475 -86.3922 264° West 274 315 8,000 -1,548 Descending Chicago Center
Wed 09:10:56 AM 40.4467 -86.4286 268° West 281 323 7,300 -1,562 Descending Chicago Center
Wed 09:11:34 AM 40.4411 -86.5119 265° West 270 311 6,100 -1,935 Descending Chicago Center
Wed 09:11:58 AM 40.4389 -86.5442 265° West 269 310 5,300 -1,636 Descending Chicago Center
Wed 09:12:29 AM 40.4403 -86.5967 272° West 267 307 4,600 -1,524 Descending Chicago Center
Wed 09:13:01 AM 40.4456 -86.6394 279° West 264 304 3,700 -1,364 Descending Chicago Center
Wed 09:13:35 AM 40.4467 -86.7036 271° West 261 300 3,100 -774 Descending Chicago Center
Wed 09:14:03 AM 40.4508 -86.7328 281° West 262 302 2,900 -98 Descending Chicago Center
Wed 09:14:36 AM 40.4522 -86.7831 272° West 229 264 3,000 97 Climbing Chicago Center
Wed 09:15:05 AM 40.4561 -86.8147 279° West 249 287 3,000 -197 Level Chicago Center
Wed 09:15:37 AM 40.4536 -86.8569 266° West 183 211 2,800 -387 Descending Chicago Center
Wed 09:16:07 AM 40.4528 -86.8767 267° West 204 235 2,600 -600 Descending Chicago Center
Wed 09:16:37 AM 40.4489 -86.9250 264° West 176 203 2,200 -433 Descending Chicago Center
Wed 09:17:44 AM 40.4483 -86.9933 269° West 175 201 1,900 -378 Descending Chicago Center
Wed 09:18:44 AM 40.4172 -86.9883 173° South 110 127 1,400 -500 Descending Chicago Center
Wed 09:20:00 AM 40.4000 -86.9333 131° Southeast  Level FlightAware Approximate

Login

Don't have an account? Register now (free) for customized features, flight alerts, and more!